Adrian, Oregon
Current Conditions -  °F | °C
As of 9:53 PM on Thursday 30 Oct 2014 (Local Time) from KONO Reporting Station
Clear Clear  
Wind Chill: 46°   Ceiling: Unl
Heat Index: 49°   Visibility: 10mi
Dew Point: 41°   Wind: 7mph
Humidity: 74%   Direction: 240°WSW
Pressure: 29.91"   Gusts: NA
Location:  43.74°N, 117.07°W
Report Text: KONO 310353Z AUTO 24006KT 10SM CLR 09/05 A2991 RMK AO2 SLP136 T00940050
Loading
Personal Weather Stations






























Interactive Weather Map
Tropical Storm Tracking
New forecast layout! Learn more

10-Day Weather Forecast

Advertisements
Track Severe Weather on mobile